sensor_id;sensor_type;location;lat;lon;timestamp;pressure;altitude;pressure_sealevel;temperature;humidity
25130;BME280;13308;50.860;13.664;2023-08-30T05:19:32;96074.81;;;13.01;100.00
25130;BME280;13308;50.860;13.664;2023-08-30T05:21:58;96066.19;;;12.99;100.00
25130;BME280;13308;50.860;13.664;2023-08-30T05:24:24;96059.50;;;13.09;100.00
25130;BME280;13308;50.860;13.664;2023-08-30T05:26:52;96056.75;;;13.18;100.00
25130;BME280;13308;50.860;13.664;2023-08-30T05:29:17;96048.16;;;13.16;100.00
25130;BME280;13308;50.860;13.664;2023-08-30T05:31:43;96051.22;;;13.18;100.00
25130;BME280;13308;50.860;13.664;2023-08-30T05:34:25;96052.91;;;13.16;100.00
25130;BME280;13308;50.860;13.664;2023-08-30T05:37:06;96052.09;;;13.37;100.00
25130;BME280;13308;50.860;13.664;2023-08-30T05:39:56;96048.22;;;13.34;100.00
25130;BME280;13308;50.860;13.664;2023-08-30T05:42:22;96047.94;;;13.41;100.00
25130;BME280;13308;50.860;13.664;2023-08-30T05:44:47;96052.56;;;13.44;100.00
25130;BME280;13308;50.860;13.664;2023-08-30T05:47:13;96049.50;;;13.42;100.00
25130;BME280;13308;50.860;13.664;2023-08-30T05:49:40;96056.16;;;13.54;100.00
25130;BME280;13308;50.860;13.664;2023-08-30T05:52:06;96057.13;;;13.60;100.00
25130;BME280;13308;50.860;13.664;2023-08-30T05:54:31;96054.81;;;13.67;100.00
25130;BME280;13308;50.860;13.664;2023-08-30T05:56:59;96052.38;;;13.78;100.00
25130;BME280;13308;50.860;13.664;2023-08-30T05:59:24;96052.84;;;13.77;100.00
25130;BME280;13308;50.860;13.664;2023-08-30T06:01:50;96049.63;;;13.78;100.00
25130;BME280;13308;50.860;13.664;2023-08-30T06:04:15;96042.44;;;13.90;100.00
25130;BME280;13308;50.860;13.664;2023-08-30T06:06:40;96035.16;;;13.92;100.00
25130;BME280;13308;50.860;13.664;2023-08-30T06:09:06;96038.88;;;13.98;100.00
25130;BME280;13308;50.860;13.664;2023-08-30T06:11:32;96050.28;;;14.00;100.00
25130;BME280;13308;50.860;13.664;2023-08-30T06:13:58;96047.81;;;14.02;100.00
25130;BME280;13308;50.860;13.664;2023-08-30T06:16:24;96052.47;;;14.05;100.00
25130;BME280;13308;50.860;13.664;2023-08-30T06:18:50;96048.75;;;13.99;100.00
25130;BME280;13308;50.860;13.664;2023-08-30T06:21:16;96049.09;;;14.10;100.00
25130;BME280;13308;50.860;13.664;2023-08-30T06:23:41;96048.16;;;14.13;100.00
25130;BME280;13308;50.860;13.664;2023-08-30T06:26:06;96044.34;;;14.20;100.00
25130;BME280;13308;50.860;13.664;2023-08-30T06:28:32;96048.97;;;14.23;100.00
25130;BME280;13308;50.860;13.664;2023-08-30T06:30:57;96052.97;;;14.22;100.00
25130;BME280;13308;50.860;13.664;2023-08-30T06:33:23;96045.44;;;14.31;100.00
25130;BME280;13308;50.860;13.664;2023-08-30T06:35:48;96048.50;;;14.24;100.00
25130;BME280;13308;50.860;13.664;2023-08-30T06:38:16;96060.84;;;14.23;100.00
25130;BME280;13308;50.860;13.664;2023-08-30T06:40:45;96053.84;;;14.10;100.00
25130;BME280;13308;50.860;13.664;2023-08-30T06:43:11;96058.06;;;14.23;100.00
25130;BME280;13308;50.860;13.664;2023-08-30T06:45:38;96058.34;;;14.16;100.00
25130;BME280;13308;50.860;13.664;2023-08-30T06:48:03;96059.09;;;14.17;100.00
25130;BME280;13308;50.860;13.664;2023-08-30T06:50:29;96054.34;;;14.26;100.00
25130;BME280;13308;50.860;13.664;2023-08-30T06:52:54;96060.09;;;14.32;100.00
25130;BME280;13308;50.860;13.664;2023-08-30T06:55:19;96057.75;;;14.30;100.00
25130;BME280;13308;50.860;13.664;2023-08-30T06:57:47;96059.31;;;14.31;100.00
25130;BME280;13308;50.860;13.664;2023-08-30T07:00:13;96063.94;;;14.34;100.00
25130;BME280;13308;50.860;13.664;2023-08-30T07:02:39;96065.16;;;14.24;100.00
25130;BME280;13308;50.860;13.664;2023-08-30T07:05:05;96061.91;;;14.35;100.00
25130;BME280;13308;50.860;13.664;2023-08-30T07:07:32;96072.25;;;14.34;100.00
25130;BME280;13308;50.860;13.664;2023-08-30T07:09:57;96073.47;;;14.33;100.00
25130;BME280;13308;50.860;13.664;2023-08-30T07:12:22;96071.19;;;14.32;100.00
25130;BME280;13308;50.860;13.664;2023-08-30T07:14:48;96066.72;;;14.43;100.00
25130;BME280;13308;50.860;13.664;2023-08-30T07:17:13;96065.47;;;14.44;100.00
25130;BME280;13308;50.860;13.664;2023-08-30T07:19:39;96076.91;;;14.46;100.00
25130;BME280;13308;50.860;13.664;2023-08-30T07:22:04;96068.56;;;14.46;100.00
25130;BME280;13308;50.860;13.664;2023-08-30T07:24:30;96067.34;;;14.65;100.00
25130;BME280;13308;50.860;13.664;2023-08-30T07:26:55;96067.34;;;14.65;100.00
25130;BME280;13308;50.860;13.664;2023-08-30T07:29:20;96071.34;;;14.64;100.00
25130;BME280;13308;50.860;13.664;2023-08-30T07:31:46;96068.09;;;14.66;100.00
25130;BME280;13308;50.860;13.664;2023-08-30T07:34:12;96075.66;;;14.65;100.00
25130;BME280;13308;50.860;13.664;2023-08-30T07:36:37;96071.03;;;14.71;100.00
25130;BME280;13308;50.860;13.664;2023-08-30T07:39:03;96065.47;;;14.62;100.00
25130;BME280;13308;50.860;13.664;2023-08-30T07:41:28;96071.19;;;14.68;100.00
25130;BME280;13308;50.860;13.664;2023-08-30T07:43:54;96069.50;;;14.70;100.00
25130;BME280;13308;50.860;13.664;2023-08-30T07:46:19;96075.34;;;14.72;100.00
25130;BME280;13308;50.860;13.664;2023-08-30T07:48:44;96078.91;;;14.73;100.00
25130;BME280;13308;50.860;13.664;2023-08-30T07:51:10;96076.91;;;14.82;100.00
25130;BME280;13308;50.860;13.664;2023-08-30T07:53:35;96071.94;;;14.86;100.00
25130;BME280;13308;50.860;13.664;2023-08-30T07:56:00;96087.38;;;14.96;100.00
25130;BME280;13308;50.860;13.664;2023-08-30T07:58:26;96076.91;;;14.82;100.00
25130;BME280;13308;50.860;13.664;2023-08-30T08:00:54;96081.50;;;15.03;100.00
25130;BME280;13308;50.860;13.664;2023-08-30T08:03:20;96092.75;;;15.09;100.00
25130;BME280;13308;50.860;13.664;2023-08-30T08:05:47;96084.13;;;14.89;100.00
25130;BME280;13308;50.860;13.664;2023-08-30T08:08:12;96084.88;;;14.98;100.00
25130;BME280;13308;50.860;13.664;2023-08-30T08:10:37;96084.88;;;15.07;100.00
25130;BME280;13308;50.860;13.664;2023-08-30T08:13:03;96088.56;;;15.04;100.00
25130;BME280;13308;50.860;13.664;2023-08-30T08:15:31;96088.56;;;15.04;100.00
25130;BME280;13308;50.860;13.664;2023-08-30T08:17:57;96080.56;;;15.06;100.00
25130;BME280;13308;50.860;13.664;2023-08-30T08:20:23;96078.66;;;15.30;100.00
25130;BME280;13308;50.860;13.664;2023-08-30T08:22:48;96079.00;;;15.32;100.00
25130;BME280;13308;50.860;13.664;2023-08-30T08:25:14;96074.81;;;15.28;100.00
25130;BME280;13308;50.860;13.664;2023-08-30T08:27:39;96072.34;;;15.30;100.00
25130;BME280;13308;50.860;13.664;2023-08-30T08:30:06;96075.38;;;15.50;100.00
25130;BME280;13308;50.860;13.664;2023-08-30T08:32:31;96079.56;;;15.54;100.00
25130;BME280;13308;50.860;13.664;2023-08-30T08:34:57;96072.38;;;15.71;100.00
25130;BME280;13308;50.860;13.664;2023-08-30T08:37:23;96075.63;;;16.02;100.00
25130;BME280;13308;50.860;13.664;2023-08-30T08:39:48;96068.06;;;16.26;100.00
25130;BME280;13308;50.860;13.664;2023-08-30T08:42:18;96076.56;;;16.55;100.00
25130;BME280;13308;50.860;13.664;2023-08-30T08:44:46;96076.34;;;16.82;100.00
25130;BME280;13308;50.860;13.664;2023-08-30T08:47:11;96068.97;;;16.94;100.00
25130;BME280;13308;50.860;13.664;2023-08-30T08:49:37;96064.69;;;16.69;100.00
25130;BME280;13308;50.860;13.664;2023-08-30T08:52:03;96065.66;;;16.81;100.00
25130;BME280;13308;50.860;13.664;2023-08-30T08:54:29;96061.34;;;16.80;100.00
25130;BME280;13308;50.860;13.664;2023-08-30T08:56:55;96068.47;;;16.95;100.00
25130;BME280;13308;50.860;13.664;2023-08-30T08:59:21;96068.97;;;17.23;100.00
25130;BME280;13308;50.860;13.664;2023-08-30T09:01:47;96069.50;;;16.83;100.00
25130;BME280;13308;50.860;13.664;2023-08-30T09:04:13;96066.38;;;17.19;100.00
25130;BME280;13308;50.860;13.664;2023-08-30T09:06:38;96068.66;;;17.44;100.00
25130;BME280;13308;50.860;13.664;2023-08-30T09:09:08;96066.91;;;17.47;100.00
25130;BME280;13308;50.860;13.664;2023-08-30T09:11:34;96070.53;;;17.67;100.00
25130;BME280;13308;50.860;13.664;2023-08-30T09:13:59;96067.47;;;17.65;100.00
25130;BME280;13308;50.860;13.664;2023-08-30T09:16:25;96064.41;;;17.63;100.00
25130;BME280;13308;50.860;13.664;2023-08-30T09:19:03;96062.00;;;17.56;100.00
25130;BME280;13308;50.860;13.664;2023-08-30T09:21:29;96061.31;;;17.61;100.00
25130;BME280;13308;50.860;13.664;2023-08-30T09:24:06;96070.38;;;17.56;100.00
25130;BME280;13308;50.860;13.664;2023-08-30T09:26:32;96065.13;;;17.78;100.00
25130;BME280;13308;50.860;13.664;2023-08-30T09:29:02;96064.50;;;17.54;100.00
25130;BME280;13308;50.860;13.664;2023-08-30T09:31:35;96073.59;;;17.84;100.00
25130;BME280;13308;50.860;13.664;2023-08-30T09:34:02;96061.28;;;18.25;100.00
25130;BME280;13308;50.860;13.664;2023-08-30T09:36:35;96062.72;;;18.55;100.00
25130;BME280;13308;50.860;13.664;2023-08-30T09:39:09;96079.06;;;18.27;97.85
25130;BME280;13308;50.860;13.664;2023-08-30T09:41:40;96071.47;;;17.93;98.09
25130;BME280;13308;50.860;13.664;2023-08-30T09:44:10;96076.09;;;17.82;95.48
25130;BME280;13308;50.860;13.664;2023-08-30T09:46:52;96076.50;;;17.75;96.09
25130;BME280;13308;50.860;13.664;2023-08-30T09:49:25;96074.84;;;17.83;96.17
25130;BME280;13308;50.860;13.664;2023-08-30T09:51:51;96073.59;;;17.84;98.92
25130;BME280;13308;50.860;13.664;2023-08-30T09:54:27;96074.53;;;17.95;98.60
25130;BME280;13308;50.860;13.664;2023-08-30T09:56:54;96082.16;;;17.80;98.88
25130;BME280;13308;50.860;13.664;2023-08-30T09:59:21;96073.41;;;17.87;95.12
25130;BME280;13308;50.860;13.664;2023-08-30T10:01:47;96073.78;;;17.95;96.34
25130;BME280;13308;50.860;13.664;2023-08-30T10:04:20;96064.38;;;18.12;97.16
25130;BME280;13308;50.860;13.664;2023-08-30T10:06:46;96070.81;;;18.18;90.71
25130;BME280;13308;50.860;13.664;2023-08-30T10:09:12;96067.91;;;17.93;93.84
25130;BME280;13308;50.860;13.664;2023-08-30T10:11:39;96061.38;;;18.16;94.14
25130;BME280;13308;50.860;13.664;2023-08-30T10:14:08;96050.44;;;18.12;90.74
25130;BME280;13308;50.860;13.664;2023-08-30T10:16:47;96063.19;;;18.33;93.47
25130;BME280;13308;50.860;13.664;2023-08-30T10:21:47;96064.94;;;18.91;89.57
25130;BME280;13308;50.860;13.664;2023-08-30T10:24:14;96061.81;;;18.63;90.29
25130;BME280;13308;50.860;13.664;2023-08-30T10:26:43;96062.19;;;18.96;91.19
25130;BME280;13308;50.860;13.664;2023-08-30T10:29:10;96064.84;;;19.05;87.09
25130;BME280;13308;50.860;13.664;2023-08-30T10:31:38;96061.22;;;18.99;84.68
25130;BME280;13308;50.860;13.664;2023-08-30T10:34:13;96073.09;;;18.94;87.20
25130;BME280;13308;50.860;13.664;2023-08-30T10:36:38;96076.00;;;19.05;87.07
25130;BME280;13308;50.860;13.664;2023-08-30T10:39:14;96078.44;;;18.52;84.53
25130;BME280;13308;50.860;13.664;2023-08-30T10:41:58;96080.38;;;18.46;84.74
25130;BME280;13308;50.860;13.664;2023-08-30T10:44:24;96079.38;;;18.49;83.44
25130;BME280;13308;50.860;13.664;2023-08-30T10:46:53;96082.47;;;18.51;83.90
25130;BME280;13308;50.860;13.664;2023-08-30T10:49:19;96085.53;;;18.53;83.63
25130;BME280;13308;50.860;13.664;2023-08-30T10:51:44;96090.28;;;18.67;82.71
25130;BME280;13308;50.860;13.664;2023-08-30T10:54:15;96083.88;;;18.81;84.02
25130;BME280;13308;50.860;13.664;2023-08-30T10:56:56;96087.78;;;19.34;89.04
25130;BME280;13308;50.860;13.664;2023-08-30T10:59:24;96082.81;;;19.75;85.97
25130;BME280;13308;50.860;13.664;2023-08-30T11:01:50;96083.50;;;20.26;81.97
25130;BME280;13308;50.860;13.664;2023-08-30T11:04:17;96070.63;;;20.51;83.63
25130;BME280;13308;50.860;13.664;2023-08-30T11:06:47;96077.50;;;21.03;85.63
25130;BME280;13308;50.860;13.664;2023-08-30T11:09:18;96079.13;;;21.42;81.81
25130;BME280;13308;50.860;13.664;2023-08-30T11:11:44;96078.66;;;21.60;73.87
25130;BME280;13308;50.860;13.664;2023-08-30T11:14:11;96081.25;;;22.02;77.32
25130;BME280;13308;50.860;13.664;2023-08-30T11:16:37;96080.44;;;22.46;78.07
25130;BME280;13308;50.860;13.664;2023-08-30T11:19:03;96082.78;;;22.20;76.72
25130;BME280;13308;50.860;13.664;2023-08-30T11:21:34;96088.41;;;22.09;70.13
25130;BME280;13308;50.860;13.664;2023-08-30T11:24:00;96085.03;;;22.21;76.66
25130;BME280;13308;50.860;13.664;2023-08-30T11:26:26;96077.91;;;21.71;70.47
25130;BME280;13308;50.860;13.664;2023-08-30T11:28:51;96080.63;;;22.70;74.89
25130;BME280;13308;50.860;13.664;2023-08-30T11:31:25;96080.97;;;22.28;76.03
25130;BME280;13308;50.860;13.664;2023-08-30T11:33:54;96071.50;;;22.31;73.71
25130;BME280;13308;50.860;13.664;2023-08-30T11:36:22;96070.19;;;22.54;69.13
25130;BME280;13308;50.860;13.664;2023-08-30T11:38:52;96074.97;;;23.38;68.51
25130;BME280;13308;50.860;13.664;2023-08-30T11:41:20;96070.69;;;23.26;65.10
25130;BME280;13308;50.860;13.664;2023-08-30T11:43:47;96067.34;;;23.33;65.23
25130;BME280;13308;50.860;13.664;2023-08-30T11:46:12;96064.66;;;23.00;68.55
25130;BME280;13308;50.860;13.664;2023-08-30T11:48:39;96060.84;;;22.97;65.16
25130;BME280;13308;50.860;13.664;2023-08-30T11:51:06;96059.09;;;22.89;62.40
25130;BME280;13308;50.860;13.664;2023-08-30T11:53:32;96056.00;;;22.92;66.09
25130;BME280;13308;50.860;13.664;2023-08-30T11:55:57;96061.06;;;23.05;62.45
25130;BME280;13308;50.860;13.664;2023-08-30T11:58:22;96051.88;;;21.76;64.67
25130;BME280;13308;50.860;13.664;2023-08-30T12:00:52;96047.13;;;20.90;64.91
25130;BME280;13308;50.860;13.664;2023-08-30T12:03:19;96036.84;;;20.18;67.75
25130;BME280;13308;50.860;13.664;2023-08-30T12:05:46;96026.00;;;20.00;72.62
25130;BME280;13308;50.860;13.664;2023-08-30T12:08:29;96032.38;;;21.12;72.84
25130;BME280;13308;50.860;13.664;2023-08-30T12:10:56;96037.56;;;22.23;66.89
25130;BME280;13308;50.860;13.664;2023-08-30T12:13:25;96033.38;;;23.20;61.56
25130;BME280;13308;50.860;13.664;2023-08-30T12:15:52;96032.59;;;23.60;58.66
25130;BME280;13308;50.860;13.664;2023-08-30T12:18:29;96025.78;;;23.04;60.91
25130;BME280;13308;50.860;13.664;2023-08-30T12:21:02;96027.84;;;22.19;70.00
25130;BME280;13308;50.860;13.664;2023-08-30T12:23:30;96021.75;;;21.65;71.81
25130;BME280;13308;50.860;13.664;2023-08-30T12:26:06;96017.34;;;21.04;70.47
25130;BME280;13308;50.860;13.664;2023-08-30T12:28:36;96020.16;;;21.09;70.68
25130;BME280;13308;50.860;13.664;2023-08-30T12:31:02;96019.94;;;21.35;70.01
25130;BME280;13308;50.860;13.664;2023-08-30T12:33:31;96015.84;;;21.36;72.25
25130;BME280;13308;50.860;13.664;2023-08-30T12:35:57;96019.91;;;21.24;71.16
25130;BME280;13308;50.860;13.664;2023-08-30T12:38:23;96020.16;;;21.20;71.94
25130;BME280;13308;50.860;13.664;2023-08-30T12:40:51;96019.13;;;20.96;72.88
25130;BME280;13308;50.860;13.664;2023-08-30T12:43:17;96019.19;;;20.54;72.70
25130;BME280;13308;50.860;13.664;2023-08-30T12:45:43;96007.09;;;20.31;74.58
25130;BME280;13308;50.860;13.664;2023-08-30T12:48:13;96006.88;;;20.35;75.20
25130;BME280;13308;50.860;13.664;2023-08-30T12:50:41;96004.75;;;20.19;75.86
25130;BME280;13308;50.860;13.664;2023-08-30T12:53:07;96007.53;;;20.13;75.82
25130;BME280;13308;50.860;13.664;2023-08-30T12:55:33;96001.69;;;20.17;77.34
25130;BME280;13308;50.860;13.664;2023-08-30T12:58:00;95998.00;;;20.42;76.27
25130;BME280;13308;50.860;13.664;2023-08-30T13:00:25;96013.78;;;20.39;76.10
25130;BME280;13308;50.860;13.664;2023-08-30T13:02:51;96008.97;;;20.51;75.35
25130;BME280;13308;50.860;13.664;2023-08-30T13:05:17;96014.34;;;20.49;75.57
25130;BME280;13308;50.860;13.664;2023-08-30T13:07:42;96004.69;;;20.08;66.59
25130;BME280;13308;50.860;13.664;2023-08-30T13:10:08;96007.31;;;19.49;71.91
25130;BME280;13308;50.860;13.664;2023-08-30T13:12:34;96005.81;;;19.54;70.55
25130;BME280;13308;50.860;13.664;2023-08-30T13:14:59;95997.56;;;19.39;71.91
25130;BME280;13308;50.860;13.664;2023-08-30T13:17:25;95989.59;;;19.58;76.65
25130;BME280;13308;50.860;13.664;2023-08-30T13:19:50;95994.56;;;19.79;71.61
25130;BME280;13308;50.860;13.664;2023-08-30T13:22:16;95991.06;;;19.84;73.02
25130;BME280;13308;50.860;13.664;2023-08-30T13:24:41;95999.34;;;20.10;71.97
25130;BME280;13308;50.860;13.664;2023-08-30T13:27:07;95989.44;;;20.09;71.28
25130;BME280;13308;50.860;13.664;2023-08-30T13:29:32;96002.22;;;20.21;68.86
25130;BME280;13308;50.860;13.664;2023-08-30T13:31:57;96004.06;;;20.99;68.18
25130;BME280;13308;50.860;13.664;2023-08-30T13:34:23;95999.31;;;21.76;66.40
25130;BME280;13308;50.860;13.664;2023-08-30T13:36:48;96003.94;;;22.75;64.34
25130;BME280;13308;50.860;13.664;2023-08-30T13:39:14;96006.75;;;23.91;58.55
25130;BME280;13308;50.860;13.664;2023-08-30T13:41:40;96002.53;;;24.51;55.72
25130;BME280;13308;50.860;13.664;2023-08-30T13:44:05;96016.84;;;25.38;50.80
25130;BME280;13308;50.860;13.664;2023-08-30T13:46:31;96013.66;;;26.10;53.82
25130;BME280;13308;50.860;13.664;2023-08-30T13:48:57;96008.00;;;26.10;49.88
25130;BME280;13308;50.860;13.664;2023-08-30T13:51:24;96009.44;;;26.29;51.03
25130;BME280;13308;50.860;13.664;2023-08-30T13:53:52;96003.72;;;27.67;50.69
25130;BME280;13308;50.860;13.664;2023-08-30T13:56:18;96005.22;;;26.75;50.25
25130;BME280;13308;50.860;13.664;2023-08-30T13:58:45;95989.56;;;25.59;51.58
25130;BME280;13308;50.860;13.664;2023-08-30T14:01:10;96001.16;;;26.31;49.91
25130;BME280;13308;50.860;13.664;2023-08-30T14:03:36;95987.38;;;25.15;52.38
25130;BME280;13308;50.860;13.664;2023-08-30T14:06:01;95989.03;;;25.05;54.04
25130;BME280;13308;50.860;13.664;2023-08-30T14:08:27;95983.19;;;24.18;57.61
25130;BME280;13308;50.860;13.664;2023-08-30T14:10:52;95987.63;;;23.08;60.79
25130;BME280;13308;50.860;13.664;2023-08-30T14:13:17;95978.81;;;22.20;67.63
25130;BME280;13308;50.860;13.664;2023-08-30T14:15:43;95977.00;;;22.28;68.73
25130;BME280;13308;50.860;13.664;2023-08-30T14:18:08;95970.19;;;21.96;71.66
25130;BME280;13308;50.860;13.664;2023-08-30T14:20:34;95975.06;;;21.79;72.62
25130;BME280;13308;50.860;13.664;2023-08-30T14:22:59;95974.53;;;21.42;72.11
25130;BME280;13308;50.860;13.664;2023-08-30T14:25:25;95972.72;;;21.06;65.19
25130;BME280;13308;50.860;13.664;2023-08-30T14:27:50;95972.38;;;20.82;71.31
25130;BME280;13308;50.860;13.664;2023-08-30T14:30:16;95976.81;;;21.10;74.98
25130;BME280;13308;50.860;13.664;2023-08-30T14:32:41;95964.22;;;22.27;72.58
25130;BME280;13308;50.860;13.664;2023-08-30T14:35:07;95970.28;;;22.42;66.43
25130;BME280;13308;50.860;13.664;2023-08-30T14:37:32;95968.41;;;21.82;69.65
25130;BME280;13308;50.860;13.664;2023-08-30T14:40:02;95959.47;;;21.50;70.58
25130;BME280;13308;50.860;13.664;2023-08-30T14:42:28;95966.34;;;20.89;66.33
25130;BME280;13308;50.860;13.664;2023-08-30T14:44:53;95969.88;;;20.84;67.93
25130;BME280;13308;50.860;13.664;2023-08-30T14:47:19;95957.59;;;20.65;67.34
25130;BME280;13308;50.860;13.664;2023-08-30T14:49:46;95962.38;;;20.48;71.90
25130;BME280;13308;50.860;13.664;2023-08-30T14:52:12;95959.25;;;20.35;74.33
25130;BME280;13308;50.860;13.664;2023-08-30T14:54:38;95957.66;;;20.17;71.48
25130;BME280;13308;50.860;13.664;2023-08-30T14:57:03;95953.81;;;19.73;72.52
25130;BME280;13308;50.860;13.664;2023-08-30T14:59:29;95959.38;;;19.67;74.52
25130;BME280;13308;50.860;13.664;2023-08-30T15:01:55;95953.25;;;19.63;79.37
25130;BME280;13308;50.860;13.664;2023-08-30T15:04:20;95946.72;;;19.41;83.82
25130;BME280;13308;50.860;13.664;2023-08-30T15:06:46;95945.38;;;19.31;89.29
25130;BME280;13308;50.860;13.664;2023-08-30T15:09:11;95944.03;;;19.21;88.69
25130;BME280;13308;50.860;13.664;2023-08-30T15:11:37;95941.50;;;19.23;88.06
25130;BME280;13308;50.860;13.664;2023-08-30T15:14:02;95948.41;;;19.27;91.12
25130;BME280;13308;50.860;13.664;2023-08-30T15:16:28;95945.88;;;19.29;90.93
25130;BME280;13308;50.860;13.664;2023-08-30T15:18:53;95958.91;;;19.38;91.72
25130;BME280;13308;50.860;13.664;2023-08-30T15:21:18;95952.41;;;19.52;91.05
25130;BME280;13308;50.860;13.664;2023-08-30T15:23:44;95955.22;;;19.52;91.52
25130;BME280;13308;50.860;13.664;2023-08-30T15:26:09;95947.81;;;19.49;90.50
25130;BME280;13308;50.860;13.664;2023-08-30T15:28:41;95955.13;;;19.41;91.34
25130;BME280;13308;50.860;13.664;2023-08-30T15:31:08;95953.66;;;18.94;97.64
25130;BME280;13308;50.860;13.664;2023-08-30T15:33:33;95951.50;;;18.79;99.17
25130;BME280;13308;50.860;13.664;2023-08-30T15:36:00;95960.91;;;18.81;98.97
25130;BME280;13308;50.860;13.664;2023-08-30T15:38:25;95958.31;;;19.03;97.73
25130;BME280;13308;50.860;13.664;2023-08-30T15:40:53;95958.50;;;18.94;98.85
25130;BME280;13308;50.860;13.664;2023-08-30T15:43:19;95953.34;;;18.87;99.64
25130;BME280;13308;50.860;13.664;2023-08-30T15:45:45;95957.94;;;18.90;100.00
25130;BME280;13308;50.860;13.664;2023-08-30T15:48:10;95950.84;;;18.89;100.00
25130;BME280;13308;50.860;13.664;2023-08-30T15:50:36;95957.44;;;19.17;99.33
25130;BME280;13308;50.860;13.664;2023-08-30T15:53:01;95955.63;;;19.14;96.20
25130;BME280;13308;50.860;13.664;2023-08-30T15:55:27;95960.47;;;18.88;98.90
25130;BME280;13308;50.860;13.664;2023-08-30T15:57:54;95960.31;;;18.72;98.99
25130;BME280;13308;50.860;13.664;2023-08-30T16:00:19;95949.94;;;18.52;100.00
25130;BME280;13308;50.860;13.664;2023-08-30T16:02:45;95957.66;;;18.63;99.90
25130;BME280;13308;50.860;13.664;2023-08-30T16:05:10;95957.81;;;18.54;96.91
25130;BME280;13308;50.860;13.664;2023-08-30T16:07:36;95961.00;;;18.41;100.00
25130;BME280;13308;50.860;13.664;2023-08-30T16:10:02;95954.47;;;18.30;100.00
25130;BME280;13308;50.860;13.664;2023-08-30T16:12:27;95951.41;;;18.28;100.00
25130;BME280;13308;50.860;13.664;2023-08-30T16:14:53;95952.19;;;18.28;100.00
25130;BME280;13308;50.860;13.664;2023-08-30T16:17:18;95945.47;;;18.20;100.00
25130;BME280;13308;50.860;13.664;2023-08-30T16:19:43;95945.91;;;18.13;100.00
25130;BME280;13308;50.860;13.664;2023-08-30T16:22:09;95955.94;;;18.05;100.00
25130;BME280;13308;50.860;13.664;2023-08-30T16:24:34;95948.47;;;17.97;100.00
25130;BME280;13308;50.860;13.664;2023-08-30T16:26:59;95956.38;;;17.98;100.00
25130;BME280;13308;50.860;13.664;2023-08-30T16:29:25;95950.59;;;18.02;100.00
25130;BME280;13308;50.860;13.664;2023-08-30T16:31:51;95950.22;;;17.94;100.00
25130;BME280;13308;50.860;13.664;2023-08-30T16:34:18;95947.97;;;17.78;100.00
25130;BME280;13308;50.860;13.664;2023-08-30T16:36:45;95948.38;;;17.71;100.00
25130;BME280;13308;50.860;13.664;2023-08-30T16:39:10;95941.53;;;17.52;100.00
25130;BME280;13308;50.860;13.664;2023-08-30T16:41:35;95932.59;;;17.34;100.00
25130;BME280;13308;50.860;13.664;2023-08-30T16:44:01;95944.06;;;17.21;100.00
25130;BME280;13308;50.860;13.664;2023-08-30T16:46:26;95943.97;;;17.01;100.00
25130;BME280;13308;50.860;13.664;2023-08-30T16:48:51;95946.19;;;16.97;100.00
25130;BME280;13308;50.860;13.664;2023-08-30T16:51:17;95946.59;;;16.90;100.00
25130;BME280;13308;50.860;13.664;2023-08-30T16:53:42;95937.94;;;16.88;100.00
25130;BME280;13308;50.860;13.664;2023-08-30T16:56:07;95945.41;;;16.82;100.00
25130;BME280;13308;50.860;13.664;2023-08-30T16:58:33;95933.72;;;16.78;100.00
25130;BME280;13308;50.860;13.664;2023-08-30T17:00:58;95937.47;;;16.75;100.00
25130;BME280;13308;50.860;13.664;2023-08-30T17:03:23;95942.75;;;16.59;100.00
25130;BME280;13308;50.860;13.664;2023-08-30T17:05:49;95933.59;;;16.58;100.00
25130;BME280;13308;50.860;13.664;2023-08-30T17:08:14;95936.56;;;16.40;100.00
25130;BME280;13308;50.860;13.664;2023-08-30T17:10:39;95945.25;;;16.33;100.00
25130;BME280;13308;50.860;13.664;2023-08-30T17:13:05;95940.06;;;16.26;100.00
25130;BME280;13308;50.860;13.664;2023-08-30T17:15:30;95942.03;;;16.11;100.00
25130;BME280;13308;50.860;13.664;2023-08-30T17:17:56;95946.28;;;16.21;100.00
25130;BME280;13308;50.860;13.664;2023-08-30T17:20:21;95946.28;;;16.21;100.00
25130;BME280;13308;50.860;13.664;2023-08-30T17:22:46;95943.00;;;16.08;100.00
25130;BME280;13308;50.860;13.664;2023-08-30T17:25:12;95947.69;;;16.02;100.00
25130;BME280;13308;50.860;13.664;2023-08-30T17:27:37;95945.25;;;15.95;100.00
25130;BME280;13308;50.860;13.664;2023-08-30T17:30:06;95941.41;;;15.93;100.00
25130;BME280;13308;50.860;13.664;2023-08-30T17:32:32;95951.50;;;15.81;100.00
25130;BME280;13308;50.860;13.664;2023-08-30T17:34:57;95961.38;;;15.82;100.00
25130;BME280;13308;50.860;13.664;2023-08-30T17:37:22;95962.06;;;15.77;100.00
25130;BME280;13308;50.860;13.664;2023-08-30T17:39:48;95964.34;;;15.79;100.00
25130;BME280;13308;50.860;13.664;2023-08-30T17:42:13;95963.06;;;15.65;100.00
25130;BME280;13308;50.860;13.664;2023-08-30T17:44:39;95955.06;;;15.58;100.00
25130;BME280;13308;50.860;13.664;2023-08-30T17:47:05;95960.66;;;15.49;100.00
25130;BME280;13308;50.860;13.664;2023-08-30T17:49:30;95948.66;;;15.43;100.00
25130;BME280;13308;50.860;13.664;2023-08-30T17:51:56;95942.84;;;15.32;100.00
25130;BME280;13308;50.860;13.664;2023-08-30T17:54:21;95949.69;;;15.13;100.00
25130;BME280;13308;50.860;13.664;2023-08-30T17:56:46;95957.47;;;15.00;100.00
25130;BME280;13308;50.860;13.664;2023-08-30T17:59:12;95953.28;;;14.96;100.00
25130;BME280;13308;50.860;13.664;2023-08-30T18:01:38;95954.88;;;14.88;100.00
25130;BME280;13308;50.860;13.664;2023-08-30T18:04:03;95951.06;;;14.76;100.00